METAR AND TAF INFORMATION
METAR FOR ENRO
ADDS - METARS form results

(0933 UTC 28 September 2021)
Data provider http://aviationweather.gov/metar/data/
 
METAR text: ENRO 280920Z 10011KT 9999 -DZ BKN012 08/06 Q1018
Conditions at: ENRO (ROROS AIRPORT , NO) observed 0920 UTC 28 September 2021
Temperature: 8.0°C (46°F)
Dewpoint: 6.0°C (43°F) [RH = 87%]
Pressure (altimeter): 30.06 inches Hg (1018.0 mb)
Winds: from the E (100 degrees) at 13 MPH (11 knots; 5.7 m/s)
Visibility: 6 or more miles (10+ km)
Ceiling: 1200 feet AGL
Clouds: broken clouds at 1200 feet AGL
Weather: -DZ  (light drizzle)

METAR text: ENRO 280850Z 11010KT 9999 -RA FEW009 BKN012 08/06 Q1018
Conditions at: ENRO (ROROS AIRPORT , NO) observed 0850 UTC 28 September 2021
Temperature: 8.0°C (46°F)
Dewpoint: 6.0°C (43°F) [RH = 87%]
Pressure (altimeter): 30.06 inches Hg (1018.0 mb)
Winds: from the ESE (110 degrees) at 12 MPH (10 knots; 5.1 m/s)
Visibility: 6 or more miles (10+ km)
Ceiling: 1200 feet AGL
Clouds: few clouds at 900 feet AGL
broken clouds at 1200 feet AGL
Weather: -RA  (light rain)

Forecast for: ENRO (ROROS AIRPORT , NO)
Text: TAF ENRO 280800Z 2809/2818 12008KT 9999 -RA BKN008
Forecast period: 0900 to 1800 UTC 28 September 2021
Forecast type: FROM: standard forecast or significant change
Winds: from the ESE (120 degrees) at 9 MPH (8 knots; 4.1 m/s)
Visibility: 6 or more miles (10+ km)
Ceiling: 800 feet AGL
Clouds: broken clouds at 800 feet AGL
Weather: -RA  (light rain)
Text: TEMPO 2809/2818 BKN012
Forecast period: 0900 to 1800 UTC 28 September 2021
Forecast type: TEMPORARY: The following changes expected for less than half the time period
Visibility: missing
Ceiling: 1200 feet AGL
Clouds: broken clouds at 1200 feet AGL
Weather: no significant weather forecast for this period

 AIRPORT MAP

 RUNWAY INFORMATION
Runway 14 Runway length 5643 ft Runway width 131 ft
Runway elevation 2051 ft Runway displaced threshold 197 ft Runway heading 136
Runway 32 Runway length 5643 ft Runway width 131 ft
Runway elevation 2051 ft Runway displaced threshold 459 ft Runway heading 316

 AIRPORT FREQUENCIES
Type TWR Name TWR Frequency 120.4 MHZ

 AIRPORT NEAR NAVIGATION AIDS
Type NDB Name Rambu Frequency 352 KHZ





Powered by Virtual Airlines Manager

Maps by Rafael Santos